Time;durP1;ratioP1;P1;durP2;ratioP2;P2;SDS_P1;SDS_P2;PMS_P1;PMS_P2;Temp;Humidity;BMP_temperature;BMP_pressure;BME280_temperature;BME280_humidity;BME280_pressure;Samples;Min_cycle;Max_cycle;Signal;HPM_P1;HPM_P2
2023/10/18 00:00:29;;;;;;;;;;;;;;;11.44;72.11;100024.53;3171084;28;19920;-65
2023/10/18 00:02:00;;;;;;;;;;;;;;;11.45;71.88;100010.59;3165624;28;20380;-65
2023/10/18 00:03:32;;;;;;;;;;;;;;;11.49;71.90;100014.75;3170456;28;20358;-65
2023/10/18 00:05:10;;;;;;;;;;;;;;;11.50;71.77;100016.44;3162983;28;19951;-65
2023/10/18 00:06:46;;;;;;;;;;;;;;;11.51;71.57;100011.16;3149556;28;19976;-65
2023/10/18 00:08:18;;;;;;;;;;;;;;;11.53;71.65;100008.47;3155946;28;19919;-65
2023/10/18 00:09:49;;;;;;;;;;;;;;;11.56;71.46;100013.56;3162480;28;19982;-65
2023/10/18 00:11:24;;;;;;;;;;;;;;;11.57;71.22;100010.03;3166622;28;19919;-65
2023/10/18 00:12:55;;;;;;;;;;;;;;;11.53;71.13;100003.25;3163493;28;19924;-65
2023/10/18 00:14:27;;;;;;;;;;;;;;;11.61;71.00;100008.97;3150253;28;19920;-65
2023/10/18 00:16:01;;;;;;;;;;;;;;;11.60;71.30;100015.97;3165103;28;19919;-65
2023/10/18 00:17:33;;;;;;;;;;;;;;;11.62;70.93;100015.88;3169869;28;20579;-65
2023/10/18 00:19:05;;;;;;;;;;;;;;;11.60;71.13;100013.34;3170285;28;20465;-65
2023/10/18 00:20:35;;;;;;;;;;;;;;;11.58;70.97;100012.56;3170657;28;20000;-65
2023/10/18 00:22:11;;;;;;;;;;;;;;;11.57;71.22;100005.66;3170579;28;19919;-65
2023/10/18 00:23:44;;;;;;;;;;;;;;;11.56;71.26;100008.34;3170096;28;19920;-65
2023/10/18 00:25:15;;;;;;;;;;;;;;;11.57;71.16;99995.22;3159071;28;19974;-65
2023/10/18 00:26:46;;;;;;;;;;;;;;;11.57;71.30;100000.44;3167356;28;19969;-65
2023/10/18 00:28:19;;;;;;;;;;;;;;;11.55;71.23;99996.22;3170081;28;19920;-65
2023/10/18 00:29:52;;;;;;;;;;;;;;;11.51;71.18;99995.53;3170512;28;19989;-65
2023/10/18 00:31:27;;;;;;;;;;;;;;;11.47;71.37;99988.72;3166678;28;19924;-65
2023/10/18 00:32:57;;;;;;;;;;;;;;;11.44;71.62;99986.28;3170349;28;19926;-66
2023/10/18 00:34:29;;;;;;;;;;;;;;;11.42;71.67;99985.50;3169809;28;19923;-66
2023/10/18 00:35:59;;;;;;;;;;;;;;;11.45;71.69;99980.16;3168760;28;20019;-66
2023/10/18 00:37:33;;;;;;;;;;;;;;;11.48;71.79;99982.63;3154133;28;20308;-65
2023/10/18 00:39:18;;;;;;;;;;;;;;;11.51;71.41;99985.09;3160249;28;20596;-66
2023/10/18 00:40:51;;;;;;;;;;;;;;;11.45;71.91;99977.53;3161255;28;19928;-65
2023/10/18 00:42:25;;;;;;;;;;;;;;;11.37;72.02;99977.03;3157209;28;20423;-65
2023/10/18 00:43:57;;;;;;;;;;;;;;;11.28;72.79;99972.25;3170342;28;19919;-65
2023/10/18 00:45:29;;;;;;;;;;;;;;;11.22;73.15;99977.75;3166578;28;20006;-65
2023/10/18 00:47:00;;;;;;;;;;;;;;;11.15;73.18;99979.75;3169876;28;19987;-65
2023/10/18 00:48:31;;;;;;;;;;;;;;;11.13;73.58;99977.22;3170307;28;20361;-65
2023/10/18 00:50:03;;;;;;;;;;;;;;;11.16;73.41;99984.06;3170040;28;19967;-64
2023/10/18 00:51:35;;;;;;;;;;;;;;;11.20;72.91;99980.41;3168193;28;20449;-65
2023/10/18 00:53:08;;;;;;;;;;;;;;;11.22;72.70;99982.97;3170232;28;19927;-66
2023/10/18 00:54:39;;;;;;;;;;;;;;;11.20;72.94;99983.00;3159028;28;19928;-66
2023/10/18 00:56:15;;;;;;;;;;;;;;;11.14;73.24;99976.31;3157173;28;19920;-66
2023/10/18 00:57:47;;;;;;;;;;;;;;;11.10;73.33;99979.13;3144808;28;20458;-65
2023/10/18 00:59:22;;;;;;;;;;;;;;;11.06;73.58;99977.56;3148258;28;20010;-66
2023/10/18 01:00:53;;;;;;;;;;;;;;;11.04;73.93;99979.41;3169861;28;19919;-67
2023/10/18 01:02:28;;;;;;;;;;;;;;;11.04;73.63;99980.25;3169387;28;19931;-66
2023/10/18 01:04:02;;;;;;;;;;;;;;;11.05;73.55;99976.72;3169679;28;19920;-67
2023/10/18 01:05:35;;;;;;;;;;;;;;;11.03;73.88;99978.56;3154009;28;19920;-67
2023/10/18 01:07:11;;;;;;;;;;;;;;;11.00;73.78;99978.69;3161029;28;19919;-67
2023/10/18 01:08:45;;;;;;;;;;;;;;;10.95;74.57;99980.66;3159962;28;20010;-67
2023/10/18 01:10:19;;;;;;;;;;;;;;;10.88;75.04;99971.41;3165822;28;19986;-67
2023/10/18 01:11:52;;;;;;;;;;;;;;;10.84;75.37;99975.06;3164100;28;19923;-67
2023/10/18 01:13:23;;;;;;;;;;;;;;;10.79;75.43;99974.41;3170416;28;19970;-67
2023/10/18 01:14:55;;;;;;;;;;;;;;;10.77;76.05;99971.03;3165015;28;19928;-66
2023/10/18 01:16:30;;;;;;;;;;;;;;;10.75;75.95;99967.66;3169899;28;19963;-67
2023/10/18 01:18:01;;;;;;;;;;;;;;;10.75;75.86;99967.66;3170073;28;19979;-67
2023/10/18 01:19:33;;;;;;;;;;;;;;;10.74;76.07;99963.34;3169993;28;19941;-65
2023/10/18 01:21:13;;;;;;;;;;;;;;;10.73;76.23;99972.06;3169850;28;20320;-65
2023/10/18 01:22:45;;;;;;;;;;;;;;;10.72;76.05;99965.19;3169802;28;19934;-64
2023/10/18 01:24:18;;;;;;;;;;;;;;;10.68;76.49;99962.72;3169523;28;19920;-66
2023/10/18 01:25:51;;;;;;;;;;;;;;;10.68;76.54;99969.69;3162555;28;20321;-66
2023/10/18 01:27:22;;;;;;;;;;;;;;;10.66;76.60;99964.53;3150829;28;19935;-66
2023/10/18 01:28:54;;;;;;;;;;;;;;;10.66;76.46;99969.72;3164822;28;19920;-66
2023/10/18 01:30:25;;;;;;;;;;;;;;;10.66;76.50;99963.69;3169853;28;20309;-67
2023/10/18 01:31:57;;;;;;;;;;;;;;;10.68;76.60;99965.31;3169331;28;19919;-66
2023/10/18 01:33:39;;;;;;;;;;;;;;;10.70;76.32;99965.22;3157459;28;19920;-65
2023/10/18 01:35:11;;;;;;;;;;;;;;;10.69;76.33;99961.78;3145674;28;19977;-66
2023/10/18 01:36:42;;;;;;;;;;;;;;;10.72;76.30;99957.38;3169755;28;19920;-66
2023/10/18 01:38:25;;;;;;;;;;;;;;;10.75;76.01;99959.84;3169812;28;19919;-65
2023/10/18 01:39:55;;;;;;;;;;;;;;;10.76;75.97;99958.91;3152411;28;19928;-66
2023/10/18 01:41:29;;;;;;;;;;;;;;;10.76;76.08;99962.34;3156204;28;20393;-66
2023/10/18 01:43:00;;;;;;;;;;;;;;;10.77;75.92;99958.03;3166090;28;19980;-66
2023/10/18 01:44:33;;;;;;;;;;;;;;;10.78;76.03;99970.13;3167805;28;20438;-66
2023/10/18 01:46:08;;;;;;;;;;;;;;;10.74;75.90;99955.53;3169544;28;20135;-66
2023/10/18 01:47:40;;;;;;;;;;;;;;;10.82;75.55;99963.84;3169869;28;19953;-66
2023/10/18 01:49:13;;;;;;;;;;;;;;;10.84;75.63;99965.47;3169614;28;20331;-66
2023/10/18 01:50:45;;;;;;;;;;;;;;;10.88;75.35;99968.78;3169728;28;20731;-66
2023/10/18 01:52:19;;;;;;;;;;;;;;;10.91;75.07;99968.66;3168093;28;19967;-67
2023/10/18 01:53:50;;;;;;;;;;;;;;;10.96;75.11;99974.53;3161623;28;19931;-67
2023/10/18 01:55:22;;;;;;;;;;;;;;;11.00;74.90;99970.00;3164522;28;19926;-67
2023/10/18 01:56:58;;;;;;;;;;;;;;;11.03;74.42;99967.28;3151618;28;19924;-68
2023/10/18 01:58:30;;;;;;;;;;;;;;;11.07;74.51;99974.91;3162957;28;19994;-68
2023/10/18 02:00:04;;;;;;;;;;;;;;;11.05;74.17;99971.50;3169647;28;19952;-68
2023/10/18 02:01:34;;;;;;;;;;;;;;;11.07;74.42;99968.84;3169599;28;19923;-68
2023/10/18 02:03:07;;;;;;;;;;;;;;;11.08;74.26;99966.16;3169735;28;19920;-64
2023/10/18 02:04:40;;;;;;;;;;;;;;;11.10;73.88;99964.34;3167746;28;19920;-64
2023/10/18 02:06:14;;;;;;;;;;;;;;;11.13;74.09;99960.75;3150763;28;19927;-65
2023/10/18 02:07:47;;;;;;;;;;;;;;;11.14;74.10;99960.66;3169615;28;20289;-65
2023/10/18 02:09:20;;;;;;;;;;;;;;;11.15;74.11;99958.91;3162989;28;19927;-65
2023/10/18 02:10:50;;;;;;;;;;;;;;;11.17;73.80;99964.91;3149240;28;19927;-65
2023/10/18 02:12:27;;;;;;;;;;;;;;;11.19;73.66;99957.03;3157633;28;20385;-65
2023/10/18 02:13:58;;;;;;;;;;;;;;;11.21;73.72;99955.19;3169519;28;19920;-65
2023/10/18 02:15:30;;;;;;;;;;;;;;;11.21;73.75;99965.59;3172024;28;20274;-65
2023/10/18 02:17:05;;;;;;;;;;;;;;;11.20;73.70;99956.94;3171907;28;20045;-65
2023/10/18 02:18:36;;;;;;;;;;;;;;;11.23;73.58;99961.19;3171816;28;19924;-66
2023/10/18 02:20:16;;;;;;;;;;;;;;;11.24;73.31;99968.94;3171880;27;19965;-65
2023/10/18 02:21:47;;;;;;;;;;;;;;;11.27;73.49;99967.94;3171472;28;19949;-65
2023/10/18 02:23:21;;;;;;;;;;;;;;;11.28;73.44;99961.81;3171969;28;19927;-65
2023/10/18 02:24:53;;;;;;;;;;;;;;;11.30;73.39;99973.03;3171783;28;20340;-65
2023/10/18 02:26:31;;;;;;;;;;;;;;;11.29;73.07;99960.91;3162330;28;19971;-66
2023/10/18 02:28:08;;;;;;;;;;;;;;;11.29;73.19;99963.50;3165237;28;20022;-66
2023/10/18 02:29:40;;;;;;;;;;;;;;;11.30;73.27;99971.28;3171780;28;20319;-66
2023/10/18 02:31:13;;;;;;;;;;;;;;;11.31;73.11;99970.34;3171681;28;20015;-66
2023/10/18 02:32:47;;;;;;;;;;;;;;;11.32;72.83;99968.56;3171836;28;19923;-66
2023/10/18 02:34:19;;;;;;;;;;;;;;;11.29;73.24;99968.72;3171382;28;20316;-66
2023/10/18 02:35:50;;;;;;;;;;;;;;;11.30;73.15;99970.44;3171816;28;19963;-66
2023/10/18 02:37:24;;;;;;;;;;;;;;;11.30;73.34;99971.28;3172005;28;19923;-66
2023/10/18 02:38:55;;;;;;;;;;;;;;;11.32;73.15;99968.56;3167354;28;19962;-66
2023/10/18 02:40:30;;;;;;;;;;;;;;;11.35;73.03;99976.25;3155442;28;19924;-66
2023/10/18 02:42:00;;;;;;;;;;;;;;;11.35;73.03;99974.50;3159508;28;20018;-66
2023/10/18 02:43:33;;;;;;;;;;;;;;;11.38;72.88;99970.91;3171443;28;19924;-68
2023/10/18 02:45:12;;;;;;;;;;;;;;;11.39;72.75;99980.44;3171938;28;19953;-68
2023/10/18 02:46:47;;;;;;;;;;;;;;;11.41;72.76;99980.34;3171471;28;19920;-67
2023/10/18 02:48:22;;;;;;;;;;;;;;;11.39;72.69;99972.63;3171802;28;20000;-68
2023/10/18 02:49:54;;;;;;;;;;;;;;;11.38;72.80;99976.13;3171656;28;20320;-66
2023/10/18 02:51:24;;;;;;;;;;;;;;;11.37;72.69;99977.03;3169621;27;19967;-67
2023/10/18 02:52:57;;;;;;;;;;;;;;;11.35;72.75;99974.50;3171837;28;19942;-67
2023/10/18 02:54:32;;;;;;;;;;;;;;;11.33;73.17;99971.13;3160966;28;19927;-67
2023/10/18 02:56:04;;;;;;;;;;;;;;;11.33;73.14;99968.53;3162175;28;19928;-67
2023/10/18 02:57:36;;;;;;;;;;;;;;;11.33;73.13;99967.69;3170211;28;19923;-67
2023/10/18 02:59:08;;;;;;;;;;;;;;;11.34;72.92;99969.38;3161284;28;19920;-66
2023/10/18 03:00:44;;;;;;;;;;;;;;;11.33;73.12;99968.53;3168569;28;19924;-66
2023/10/18 03:02:16;;;;;;;;;;;;;;;11.30;73.17;99973.88;3154677;28;20360;-68
2023/10/18 03:03:49;;;;;;;;;;;;;;;11.28;73.41;99970.47;3164141;28;19930;-68
2023/10/18 03:05:21;;;;;;;;;;;;;;;11.29;73.41;99968.72;3159249;28;19924;-68
2023/10/18 03:06:52;;;;;;;;;;;;;;;11.29;73.11;99963.50;3160710;28;19920;-67
2023/10/18 03:08:23;;;;;;;;;;;;;;;11.25;73.38;99973.22;3171611;28;19919;-66
2023/10/18 03:10:02;;;;;;;;;;;;;;;11.23;73.64;99971.59;3162732;28;20014;-66
2023/10/18 03:11:32;;;;;;;;;;;;;;;11.12;73.86;99956.44;3161200;28;19924;-65
2023/10/18 03:13:11;;;;;;;;;;;;;;;11.18;73.86;99970.97;3171428;28;20266;-66
2023/10/18 03:14:54;;;;;;;;;;;;;;;11.18;73.70;99968.34;3171370;28;19923;-66
2023/10/18 03:16:38;;;;;;;;;;;;;;;11.21;73.75;99970.81;3171738;28;19931;-66
2023/10/18 03:18:15;;;;;;;;;;;;;;;11.22;73.74;99967.31;3171666;28;19959;-66
2023/10/18 03:19:49;;;;;;;;;;;;;;;11.22;73.66;99969.94;3164482;28;20358;-67
2023/10/18 03:21:23;;;;;;;;;;;;;;;11.21;73.60;99969.09;3165492;28;20320;-67
2023/10/18 03:22:55;;;;;;;;;;;;;;;11.18;73.85;99968.34;3170822;28;19942;-67
2023/10/18 03:24:28;;;;;;;;;;;;;;;11.16;74.16;99973.66;3171431;28;20381;-66
2023/10/18 03:26:02;;;;;;;;;;;;;;;11.14;73.90;99975.47;3166580;28;20406;-66
2023/10/18 03:27:41;;;;;;;;;;;;;;;11.16;74.12;99973.66;3171482;28;20030;-67
2023/10/18 03:29:12;;;;;;;;;;;;;;;11.09;73.89;99954.84;3171215;28;19930;-68
2023/10/18 03:30:44;;;;;;;;;;;;;;;11.16;73.84;99968.44;3171355;28;19919;-66
2023/10/18 03:32:19;;;;;;;;;;;;;;;11.13;74.05;99958.16;3171262;28;20000;-67
2023/10/18 03:33:52;;;;;;;;;;;;;;;11.13;73.99;99959.00;3171139;28;19985;-67
2023/10/18 03:35:25;;;;;;;;;;;;;;;11.10;74.47;99961.72;3171396;28;19926;-66
2023/10/18 03:36:57;;;;;;;;;;;;;;;11.10;74.38;99966.09;3171194;28;19923;-66
2023/10/18 03:38:30;;;;;;;;;;;;;;;11.13;74.27;99961.59;3170753;28;20024;-66
2023/10/18 03:40:08;;;;;;;;;;;;;;;11.16;74.26;99958.00;3154345;28;20547;-66
2023/10/18 03:41:40;;;;;;;;;;;;;;;11.19;74.09;99957.03;3152537;28;20074;-67
2023/10/18 03:43:14;;;;;;;;;;;;;;;11.22;73.93;99964.72;3171209;28;19920;-67
2023/10/18 03:44:46;;;;;;;;;;;;;;;11.21;74.05;99961.25;3171505;28;20257;-65
2023/10/18 03:46:19;;;;;;;;;;;;;;;11.20;74.06;99969.13;3170833;28;20019;-64
2023/10/18 03:47:58;;;;;;;;;;;;;;;11.21;74.19;99970.81;3170630;28;19928;-64
2023/10/18 03:49:31;;;;;;;;;;;;;;;11.21;74.18;99960.41;3171369;28;19919;-64
2023/10/18 03:51:03;;;;;;;;;;;;;;;11.20;74.18;99953.50;3170910;28;19923;-63
2023/10/18 03:52:35;;;;;;;;;;;;;;;11.22;73.91;99954.28;3168909;28;19924;-63
2023/10/18 03:54:05;;;;;;;;;;;;;;;11.24;73.75;99955.91;3163801;28;19964;-63
2023/10/18 03:55:42;;;;;;;;;;;;;;;11.24;73.88;99953.31;3165114;28;20067;-65
2023/10/18 03:57:17;;;;;;;;;;;;;;;11.17;74.73;99949.25;3166150;28;19930;-65
2023/10/18 03:59:00;;;;;;;;;;;;;;;11.10;75.13;99955.69;3167515;28;20355;-65
2023/10/18 04:00:39;;;;;;;;;;;;;;;11.03;75.59;99952.50;3170501;28;20561;-64
2023/10/18 04:02:15;;;;;;;;;;;;;;;11.00;75.78;99954.38;3171069;28;19962;-64
2023/10/18 04:03:48;;;;;;;;;;;;;;;11.01;75.72;99951.72;3170520;28;19980;-63
2023/10/18 04:05:30;;;;;;;;;;;;;;;11.03;75.46;99952.50;3159170;28;19966;-65
2023/10/18 04:07:11;;;;;;;;;;;;;;;11.04;75.39;99956.78;3163722;28;20393;-62
2023/10/18 04:08:43;;;;;;;;;;;;;;;11.07;75.35;99953.22;3167265;28;20392;-65
2023/10/18 04:10:17;;;;;;;;;;;;;;;11.07;75.23;99950.59;3151220;28;19928;-64
2023/10/18 04:11:49;;;;;;;;;;;;;;;11.10;75.23;99948.69;3153713;28;19920;-64
2023/10/18 04:13:19;;;;;;;;;;;;;;;11.12;74.97;99953.84;3166099;28;19965;-63
2023/10/18 04:14:53;;;;;;;;;;;;;;;11.13;74.94;99952.94;3170499;28;20029;-64
2023/10/18 04:16:29;;;;;;;;;;;;;;;11.12;75.12;99944.28;3152528;28;19928;-64
2023/10/18 04:18:11;;;;;;;;;;;;;;;11.16;74.94;99947.59;3151902;28;19978;-65
2023/10/18 04:19:42;;;;;;;;;;;;;;;11.21;74.92;99939.53;3153262;28;19948;-65
2023/10/18 04:21:15;;;;;;;;;;;;;;;11.25;74.82;99936.75;3164936;28;19926;-67
2023/10/18 04:22:46;;;;;;;;;;;;;;;11.22;75.13;99936.03;3170555;28;19919;-64
2023/10/18 04:24:20;;;;;;;;;;;;;;;11.15;75.43;99941.53;3166961;28;20453;-65
2023/10/18 04:25:57;;;;;;;;;;;;;;;11.11;75.61;99936.50;3163035;28;19924;-61
2023/10/18 04:27:29;;;;;;;;;;;;;;;11.06;75.94;99934.13;3154851;28;20361;-67
2023/10/18 04:29:04;;;;;;;;;;;;;;;11.10;75.61;99947.88;3170881;28;19961;-62
2023/10/18 04:30:37;;;;;;;;;;;;;;;11.15;75.56;99944.13;3170898;28;19924;-63
2023/10/18 04:32:17;;;;;;;;;;;;;;;11.18;75.79;99943.16;3170742;28;19976;-67
2023/10/18 04:33:50;;;;;;;;;;;;;;;11.24;75.67;99944.59;3170626;28;19920;-63
2023/10/18 04:35:29;;;;;;;;;;;;;;;11.28;75.52;99943.56;3170605;28;20002;-61
2023/10/18 04:37:00;;;;;;;;;;;;;;;11.27;75.51;99947.06;3169857;28;19931;-62
2023/10/18 04:38:36;;;;;;;;;;;;;;;11.26;75.67;99942.78;3166043;28;20481;-63
2023/10/18 04:40:22;;;;;;;;;;;;;;;11.28;75.49;99951.41;3152386;28;20319;-64
2023/10/18 04:41:53;;;;;;;;;;;;;;;11.32;75.26;99956.38;3156551;28;20013;-64
2023/10/18 04:43:27;;;;;;;;;;;;;;;11.34;74.91;99954.56;3169939;28;19931;-63
2023/10/18 04:45:02;;;;;;;;;;;;;;;11.35;75.10;99958.00;3170057;28;19950;-64
2023/10/18 04:46:35;;;;;;;;;;;;;;;11.36;74.99;99959.72;3165694;28;19924;-67
2023/10/18 04:48:14;;;;;;;;;;;;;;;11.37;74.94;99951.81;3159266;28;19934;-68
2023/10/18 04:50:02;;;;;;;;;;;;;;;11.41;75.04;99957.72;3150482;28;19920;-69
2023/10/18 04:51:33;;;;;;;;;;;;;;;11.41;74.89;99957.72;3156661;28;19936;-68
2023/10/18 04:53:12;;;;;;;;;;;;;;;11.43;74.76;99961.13;3157313;28;20000;-66
2023/10/18 04:54:42;;;;;;;;;;;;;;;11.45;74.62;99961.91;3148716;28;19928;-66
2023/10/18 04:56:14;;;;;;;;;;;;;;;11.48;74.61;99959.16;3145245;28;19924;-66
2023/10/18 04:57:47;;;;;;;;;;;;;;;11.50;74.33;99967.72;3169054;28;19938;-68
2023/10/18 04:59:29;;;;;;;;;;;;;;;11.52;74.38;99967.66;3170659;28;19919;-69
2023/10/18 05:01:07;;;;;;;;;;;;;;;11.51;74.42;99969.44;3169972;28;19931;-68
2023/10/18 05:02:39;;;;;;;;;;;;;;;11.52;74.18;99972.88;3164986;28;20356;-62
2023/10/18 05:04:19;;;;;;;;;;;;;;;11.51;74.44;99974.66;3157170;28;19966;-63
2023/10/18 05:05:52;;;;;;;;;;;;;;;11.50;74.36;99972.09;3161829;28;19931;-63
2023/10/18 05:07:40;;;;;;;;;;;;;;;11.48;74.25;99969.59;3166286;28;19992;-63
2023/10/18 05:09:12;;;;;;;;;;;;;;;11.45;74.76;99967.13;3163249;28;19926;-62
2023/10/18 05:10:52;;;;;;;;;;;;;;;11.43;74.61;99958.50;3156367;28;19980;-63
2023/10/18 05:12:29;;;;;;;;;;;;;;;11.43;74.90;99962.88;3168095;28;19920;-63
2023/10/18 05:14:03;;;;;;;;;;;;;;;11.39;74.83;99959.56;3170074;28;20324;-62
2023/10/18 05:15:34;;;;;;;;;;;;;;;11.39;74.92;99963.03;3169849;28;20018;-62
2023/10/18 05:17:10;;;;;;;;;;;;;;;11.39;74.68;99962.19;3169680;28;20011;-63
2023/10/18 05:18:56;;;;;;;;;;;;;;;11.41;74.64;99968.16;3169943;28;19920;-62
2023/10/18 05:20:41;;;;;;;;;;;;;;;11.41;74.79;99967.31;3163061;28;20364;-64
2023/10/18 05:22:19;;;;;;;;;;;;;;;11.42;74.92;99971.59;3155640;28;19963;-63
2023/10/18 05:23:52;;;;;;;;;;;;;;;11.38;75.00;99969.13;3164076;28;19923;-63
2023/10/18 05:25:29;;;;;;;;;;;;;;;11.32;75.23;99966.81;3164735;28;19943;-64
2023/10/18 05:27:05;;;;;;;;;;;;;;;11.28;75.50;99974.84;3163813;28;19919;-63
2023/10/18 05:28:46;;;;;;;;;;;;;;;11.29;75.50;99971.31;3163182;28;19924;-63
2023/10/18 05:30:26;;;;;;;;;;;;;;;11.31;75.75;99972.13;3164145;28;19920;-64
2023/10/18 05:32:26;;;;;;;;;;;;;;;11.23;75.46;99961.19;3169543;28;19929;-65
2023/10/18 05:34:01;;;;;;;;;;;;;;;11.31;75.42;99969.50;3169731;28;19924;-65
2023/10/18 05:35:35;;;;;;;;;;;;;;;11.34;75.66;99972.81;3169880;28;20316;-64
2023/10/18 05:37:13;;;;;;;;;;;;;;;11.34;75.49;99974.59;3169161;28;20345;-63
2023/10/18 05:38:50;;;;;;;;;;;;;;;11.36;75.47;99971.00;3165294;28;19924;-63
2023/10/18 05:42:13;;;;;;;;;;;;;;;11.38;75.44;99979.56;3160788;28;19920;-63
2023/10/18 05:43:47;;;;;;;;;;;;;;;11.39;75.30;99976.06;3169566;28;19931;-62
2023/10/18 05:45:19;;;;;;;;;;;;;;;11.42;75.19;99975.09;3169657;28;19920;-63
2023/10/18 05:46:50;;;;;;;;;;;;;;;11.43;75.22;99981.97;3168950;28;19923;-62
2023/10/18 05:48:24;;;;;;;;;;;;;;;11.45;75.02;99982.75;3160875;28;19931;-63
2023/10/18 05:49:56;;;;;;;;;;;;;;;11.48;75.17;99980.00;3171889;27;19985;-63
2023/10/18 05:51:32;;;;;;;;;;;;;;;11.44;75.37;99988.03;3150598;28;20033;-63
2023/10/18 05:53:06;;;;;;;;;;;;;;;11.34;76.15;99983.25;3160214;28;19959;-63
2023/10/18 05:54:42;;;;;;;;;;;;;;;11.27;76.72;99981.84;3160765;28;20432;-62
2023/10/18 05:56:12;;;;;;;;;;;;;;;11.24;76.63;99987.19;3146731;28;20246;-63
2023/10/18 05:57:45;;;;;;;;;;;;;;;11.25;76.81;99995.84;3170799;28;19977;-65
2023/10/18 05:59:27;;;;;;;;;;;;;;;11.27;76.58;100004.44;3172081;28;20412;-63
2023/10/18 06:01:02;;;;;;;;;;;;;;;11.29;76.63;100002.63;3172168;28;19927;-63
2023/10/18 06:02:33;;;;;;;;;;;;;;;11.29;76.78;100003.44;3172168;28;19938;-65
2023/10/18 06:04:04;;;;;;;;;;;;;;;11.30;76.45;100004.31;3163521;28;19924;-64
2023/10/18 06:05:38;;;;;;;;;;;;;;;11.28;76.64;100004.38;3162889;28;19924;-64
2023/10/18 06:07:10;;;;;;;;;;;;;;;11.30;76.76;100007.78;3168547;28;20414;-64
2023/10/18 06:08:42;;;;;;;;;;;;;;;11.34;76.53;100003.25;3167597;28;20333;-63
2023/10/18 06:10:16;;;;;;;;;;;;;;;11.30;76.43;99993.91;3161533;28;19943;-64
2023/10/18 06:11:48;;;;;;;;;;;;;;;11.39;76.21;100002.13;3163802;28;19942;-64
2023/10/18 06:13:22;;;;;;;;;;;;;;;11.41;76.22;100002.06;3172650;28;19926;-64
2023/10/18 06:14:52;;;;;;;;;;;;;;;11.43;75.80;99995.00;3171841;28;19943;-64
2023/10/18 06:16:32;;;;;;;;;;;;;;;11.48;75.87;99994.81;3171396;28;19924;-64
2023/10/18 06:18:05;;;;;;;;;;;;;;;11.52;75.69;99994.59;3171914;28;19924;-64
2023/10/18 06:19:37;;;;;;;;;;;;;;;11.57;75.67;100000.44;3172334;28;20308;-64
2023/10/18 06:21:11;;;;;;;;;;;;;;;11.61;75.69;100006.38;3172250;28;19973;-64
2023/10/18 06:22:43;;;;;;;;;;;;;;;11.66;75.41;100007.00;3168027;28;20823;-65
2023/10/18 06:24:16;;;;;;;;;;;;;;;11.72;75.23;100008.50;3171282;28;19931;-65
2023/10/18 06:25:50;;;;;;;;;;;;;;;11.78;75.28;100008.19;3168833;28;19972;-64
2023/10/18 06:27:20;;;;;;;;;;;;;;;11.80;75.18;100009.81;3162079;28;20002;-63
2023/10/18 06:28:53;;;;;;;;;;;;;;;11.84;74.96;100008.75;3165069;28;19924;-64
2023/10/18 06:30:24;;;;;;;;;;;;;;;11.88;74.89;100011.25;3160528;28;20838;-64
2023/10/18 06:31:56;;;;;;;;;;;;;;;11.87;75.11;100015.63;3171982;28;19920;-64
2023/10/18 06:33:35;;;;;;;;;;;;;;;11.87;75.19;100025.22;3162654;28;19920;-65
2023/10/18 06:35:16;;;;;;;;;;;;;;;11.91;75.24;100017.16;3147324;28;19924;-64
2023/10/18 06:36:47;;;;;;;;;;;;;;;11.94;75.22;100017.00;3166771;28;20006;-66
2023/10/18 06:38:22;;;;;;;;;;;;;;;11.96;75.17;100025.63;3158830;28;19927;-65
2023/10/18 06:39:58;;;;;;;;;;;;;;;11.99;74.78;100022.03;3154790;28;20003;-64
2023/10/18 06:41:36;;;;;;;;;;;;;;;12.01;74.77;100021.03;3159488;28;19970;-64
2023/10/18 06:45:15;;;;;;;;;;;;;;;12.14;74.61;100017.84;3149613;28;19924;-64
2023/10/18 06:46:50;;;;;;;;;;;;;;;12.19;74.57;100013.25;3150447;28;19927;-65
2023/10/18 06:48:50;;;;;;;;;;;;;;;12.23;74.48;100015.63;3158461;28;19980;-65
2023/10/18 06:51:11;;;;;;;;;;;;;;;12.28;74.23;100015.41;3161488;28;20320;-65
2023/10/18 06:52:28;;;;;;;;;;;;;;;12.36;74.29;100012.41;3148470;28;19920;-65
2023/10/18 06:54:13;;;;;;;;;;;;;;;12.42;74.27;100019.94;3152547;28;19920;-64
2023/10/18 06:55:57;;;;;;;;;;;;;;;12.51;73.99;100019.47;3157248;28;20449;-65
2023/10/18 06:57:38;;;;;;;;;;;;;;;12.62;73.98;100018.97;3163401;28;19924;-65
2023/10/18 06:59:13;;;;;;;;;;;;;;;12.69;73.87;100023.81;3166940;28;20358;-65
2023/10/18 07:00:46;;;;;;;;;;;;;;;12.73;73.53;100022.72;3170631;28;19919;-64
2023/10/18 07:06:05;;;;;;;;;;;;;;;12.82;73.04;100020.56;3150388;28;20263;-64
2023/10/18 07:07:41;;;;;;;;;;;;;;;12.86;73.14;100029.94;3162325;28;19924;-65
2023/10/18 07:09:25;;;;;;;;;;;;;;;12.87;72.83;100021.19;3158176;28;19921;-64
2023/10/18 07:10:56;;;;;;;;;;;;;;;12.92;72.84;100029.63;3153551;28;19920;-64
2023/10/18 07:12:27;;;;;;;;;;;;;;;12.95;72.73;100030.34;3163976;28;20063;-64
2023/10/18 07:14:00;;;;;;;;;;;;;;;13.01;72.35;100023.09;3171758;28;19919;-64
2023/10/18 07:15:34;;;;;;;;;;;;;;;13.03;72.34;100029.94;3171183;28;19923;-63
2023/10/18 07:17:09;;;;;;;;;;;;;;;13.05;72.39;100040.31;3170979;28;19927;-63
2023/10/18 07:18:42;;;;;;;;;;;;;;;13.05;72.13;100035.09;3171453;28;20315;-63
2023/10/18 07:20:16;;;;;;;;;;;;;;;13.04;72.31;100034.22;3171372;28;20300;-65
2023/10/18 07:21:47;;;;;;;;;;;;;;;13.06;72.06;100036.78;3162469;28;20002;-63
2023/10/18 07:23:21;;;;;;;;;;;;;;;13.05;72.17;100035.09;3171163;28;19919;-63
2023/10/18 07:24:54;;;;;;;;;;;;;;;13.06;71.99;100034.16;3171157;28;19962;-64
2023/10/18 07:26:25;;;;;;;;;;;;;;;13.04;72.14;100038.59;3162715;28;20073;-63
2023/10/18 07:27:57;;;;;;;;;;;;;;;13.03;71.88;100043.00;3145886;28;19927;-65
2023/10/18 07:29:29;;;;;;;;;;;;;;;13.00;71.81;100037.94;3170661;28;19924;-63
2023/10/18 07:31:01;;;;;;;;;;;;;;;12.97;71.95;100044.16;3170699;28;20432;-62
2023/10/18 07:32:32;;;;;;;;;;;;;;;12.95;72.06;100046.03;3170798;28;19924;-63
2023/10/18 07:34:04;;;;;;;;;;;;;;;12.89;72.40;100041.06;3170784;28;19923;-63
2023/10/18 07:35:39;;;;;;;;;;;;;;;12.89;72.19;100042.84;3165237;28;20034;-63
2023/10/18 07:37:24;;;;;;;;;;;;;;;12.89;72.25;100042.84;3155118;28;19924;-64
2023/10/18 07:38:56;;;;;;;;;;;;;;;12.88;72.06;100041.16;3160135;28;20010;-64
2023/10/18 07:40:33;;;;;;;;;;;;;;;12.90;72.35;100040.19;3154226;28;19919;-64
2023/10/18 07:42:06;;;;;;;;;;;;;;;12.93;71.89;100042.63;3159632;28;19931;-65
2023/10/18 07:43:37;;;;;;;;;;;;;;;12.93;71.63;100032.19;3163486;28;19972;-64
2023/10/18 07:45:14;;;;;;;;;;;;;;;12.92;71.70;100035.69;3171427;28;19919;-63
2023/10/18 07:46:46;;;;;;;;;;;;;;;12.90;71.80;100034.94;3162131;28;20408;-63
2023/10/18 07:48:19;;;;;;;;;;;;;;;12.93;71.57;100042.63;3163262;28;20388;-64
2023/10/18 07:49:51;;;;;;;;;;;;;;;12.96;71.73;100045.09;3165339;28;19923;-63
2023/10/18 07:51:23;;;;;;;;;;;;;;;13.01;71.53;100033.53;3165546;28;19920;-63
2023/10/18 07:52:54;;;;;;;;;;;;;;;13.04;71.33;100039.44;3163414;28;20389;-64
2023/10/18 07:54:27;;;;;;;;;;;;;;;13.09;71.41;100041.84;3165763;28;20349;-63
2023/10/18 07:56:01;;;;;;;;;;;;;;;13.13;71.03;100045.97;3168728;28;20033;-63
2023/10/18 07:57:33;;;;;;;;;;;;;;;13.15;70.87;100042.34;3163052;28;20404;-63
2023/10/18 08:01:12;;;;;;;;;;;;;;;13.21;70.50;100035.97;3170632;28;19919;-63
2023/10/18 08:02:43;;;;;;;;;;;;;;;13.16;70.59;100037.97;3170983;28;19972;-63
2023/10/18 08:04:17;;;;;;;;;;;;;;;13.07;70.64;100028.00;3170566;28;20006;-64
2023/10/18 08:05:50;;;;;;;;;;;;;;;13.05;70.66;100040.31;3163133;28;20391;-64
2023/10/18 08:07:22;;;;;;;;;;;;;;;13.03;70.80;100042.16;3170500;28;20002;-64
2023/10/18 08:08:53;;;;;;;;;;;;;;;13.03;70.70;100043.00;3158967;28;20412;-66
2023/10/18 08:10:46;;;;;;;;;;;;;;;13.03;70.90;100043.00;3156096;28;20036;-66
2023/10/18 08:12:28;;;;;;;;;;;;;;;13.05;70.58;100038.53;3153458;28;19936;-69
2023/10/18 08:13:59;;;;;;;;;;;;;;;13.05;70.54;100035.09;3160167;28;19980;-67
2023/10/18 08:15:34;;;;;;;;;;;;;;;13.03;70.38;100042.16;3157420;28;20019;-66
2023/10/18 08:17:09;;;;;;;;;;;;;;;13.05;70.56;100040.31;3155769;28;19920;-68
2023/10/18 08:18:42;;;;;;;;;;;;;;;13.06;70.45;100032.38;3163367;28;19920;-67